Alda, Nebraska
Current Conditions -  °F | °C
As of 6:02 PM on Wednesday 22 Oct 2014 (Local Time) from KGRI Reporting Station
Haze Haze  
Wind Chill: 62°   Ceiling: 2600
Heat Index: 62°   Visibility: 6mi
Dew Point: 60°   Wind: 0mph
Humidity: 93%   Direction: NA
Pressure: 30.01"   Gusts: NA
Location:  40.87°N, 98.47°W
Report Text: KGRI 222302Z 00000KT 6SM BR SCT011 BKN026 OVC030 17/16 A3001 RMK AO2 LTG DSNT S T01670156
Loading
Personal Weather Stations






























Interactive Weather Map
Tropical Storm Tracking
New forecast layout! Learn more

10-Day Weather Forecast

Advertisements
Track Severe Weather on mobile